KNUQ/NUQ METAR and TAF weather

Enter ICAO airport designator
Station Type Date Time Source
KNUQ METAR 2019/04/20 17:56 UTC NOAA

KNUQ 201756Z 27013G19KT 10SM BKN025 16/09 A3000 RMK AO2 SLP162 T01560094 10167 20128 53010 $


Station Type Date Time Source
KNUQ Decoded METAR 2019/04/20 17:56 UTC NOAA

MOFFETT FIELD, CA, United States (KNUQ) 37-26N 122-03W 19M
Apr 20, 2019 - 01:56 PM EDT / 2019.04.20 1756 UTC
Wind: from the W (270 degrees) at 15 MPH (13 KT) gusting to 22 MPH (19 KT):0
Visibility: 10 mile(s):0
Sky conditions: mostly cloudy
Temperature: 60.1 F (15.6 C)
Dew Point: 48.9 F (9.4 C)
Relative Humidity: 66%
Pressure (altimeter): 30 in. Hg (1015 hPa)
Pressure tendency: 0.03 inches (1.0 hPa) higher than three hours ago
ob: KNUQ 201756Z 27013G19KT 10SM BKN025 16/09 A3000 RMK AO2 SLP162 T01560094 10167 20128 53010
cycle: 18

Station Type Date Time Source
KNUQ TAF 2018/01/28 15:27 UTC NOAA

TAF COR KNUQ 2815/2915 14012G22KT 9999 SCT020 BKN035 BKN050 BKN120 650509 651406 540009 540909 QNH3017INS
TEMPO 2816/2822 14018G30KT 8000 -SHRA BKN015 OVC030
FM282200 14020G32KT 9999 SCT020 BKN050 BKN120 650509 651406 540009 540909 QNH3009INS
TEMPO 2909/2915 8000 -SHRA BKN015 OVC040 T08/2915Z T12/2922Z COR 1523 FS30085

Example: see airport list